La Fayette, New York
Current Conditions -  °F | °C
As of 7:54 PM on Friday 31 Oct 2014 (Local Time) from KSYR Reporting Station
Overcast Overcast  
Wind Chill: 47°   Ceiling: 7500
Heat Index: 47°   Visibility: 10mi
Dew Point: 34°   Wind: 3mph
Humidity: 61%   Direction: 40°NE
Pressure: 29.96"   Gusts: NA
Location:  42.89°N, 76.1°W
Report Text: KSYR 312354Z 04003KT 10SM OVC075 08/01 A2996 RMK AO2 SLP146 T00830011 10100 20083 53008
Loading
Personal Weather Stations






























Interactive Weather Map
Tropical Storm Tracking
New forecast layout! Learn more

10-Day Weather Forecast

Advertisements
Track Severe Weather on mobile